WIOO/PNK METAR and TAF weather

Enter ICAO airport designator
Station Type Date Time Source
WIOO METAR 2023/02/04 03:00 UTC NOAA

WIOO 040300Z 21003KT 9999 SCT012 28/24 Q1009 NOSIG


Station Type Date Time Source
WIOO Decoded METAR 2023/02/04 03:00 UTC NOAA

Pontianak / Supadio, Indonesia (WIOO) 00-09S 109-24E 3M
Feb 03, 2023 - 10:00 PM EST / 2023.02.04 0300 UTC
Wind: from the SSW (210 degrees) at 3 MPH (3 KT):0
Visibility: greater than 7 mile(s):0
Sky conditions: partly cloudy
Temperature: 82 F (28 C)
Dew Point: 75 F (24 C)
Relative Humidity: 78%
Pressure (altimeter): 29.80 in. Hg (1009 hPa)
ob: WIOO 040300Z 21003KT 9999 SCT012 28/24 Q1009 NOSIG
cycle: 3

Station Type Date Time Source
WIOO TAF 2014/03/26 00:51 UTC NOAA

TAF TAF WIOO 252300Z 2600/2624 10002KT 7000 SCT011
BECMG 2601/2603 08005KT 9999
TEMPO 2607/2610 15010KT 3000

Example: see airport list